Time;durP1;ratioP1;P1;durP2;ratioP2;P2;SDS_P1;SDS_P2;PMS_P1;PMS_P2;Temp;Humidity;BMP_temperature;BMP_pressure;BME280_temperature;BME280_humidity;BME280_pressure;Samples;Min_cycle;Max_cycle;Signal;HPM_P1;HPM_P2
2022/01/13 00:00:07;;;;;;;142.25;53.88;;;;;;;1.81;100.00;104029.00;1023771;29;20714;-77
2022/01/13 00:00:38;;;;;;;155.88;55.38;;;;;;;1.86;100.00;104032.22;1024114;29;20278;-75
2022/01/13 00:01:11;;;;;;;145.50;54.10;;;;;;;1.86;100.00;104032.22;1024513;28;20655;-75
2022/01/13 00:01:43;;;;;;;148.85;54.53;;;;;;;1.84;100.00;104038.50;1024143;29;20422;-75
2022/01/13 00:02:15;;;;;;;149.75;56.50;;;;;;;1.83;100.00;104036.78;1023840;29;20736;-75
2022/01/13 00:02:47;;;;;;;171.57;55.08;;;;;;;1.82;100.00;104037.72;1023598;29;20286;-75
2022/01/13 00:03:19;;;;;;;159.20;57.00;;;;;;;1.83;100.00;104034.16;1020746;29;20287;-75
2022/01/13 00:03:51;;;;;;;146.57;54.63;;;;;;;1.85;100.00;104035.78;1023969;29;20274;-76
2022/01/13 00:04:23;;;;;;;154.40;54.58;;;;;;;1.85;100.00;104037.56;1023823;29;20410;-74
2022/01/13 00:04:54;;;;;;;175.25;58.53;;;;;;;1.86;100.00;104040.13;1024494;28;20307;-75
2022/01/13 00:05:29;;;;;;;150.90;54.13;;;;;;;1.88;100.00;104037.41;1021953;29;20813;-75
2022/01/13 00:06:00;;;;;;;148.80;55.60;;;;;;;1.88;100.00;104037.41;1023965;29;20774;-75
2022/01/13 00:06:32;;;;;;;155.65;53.33;;;;;;;1.85;100.00;104029.69;1024070;29;20290;-75
2022/01/13 00:07:04;;;;;;;163.07;56.90;;;;;;;1.83;100.00;104036.78;1024714;28;20341;-75
2022/01/13 00:07:36;;;;;;;156.27;55.47;;;;;;;1.83;100.00;104032.38;1028004;28;20285;-75
2022/01/13 00:08:07;;;;;;;164.38;57.97;;;;;;;1.84;100.00;104034.09;1028164;28;20705;-75
2022/01/13 00:08:39;;;;;;;163.55;55.05;;;;;;;1.84;100.00;104033.25;1028275;28;20280;-74
2022/01/13 00:09:11;;;;;;;179.02;56.78;;;;;;;1.81;100.00;104029.00;1023709;29;20647;-75
2022/01/13 00:09:43;;;;;;;149.80;55.65;;;;;;;1.84;100.00;104028.84;1023997;29;20294;-75
2022/01/13 00:10:15;;;;;;;157.88;56.20;;;;;;;1.86;100.00;104026.13;1023803;29;20633;-75
2022/01/13 00:10:47;;;;;;;161.80;57.97;;;;;;;1.88;100.00;104032.16;1024243;28;20377;-75
2022/01/13 00:11:18;;;;;;;159.77;55.05;;;;;;;1.86;100.00;104026.13;1023096;29;20283;-75
2022/01/13 00:11:51;;;;;;;167.52;55.95;;;;;;;1.85;100.00;104030.53;1024062;29;20279;-75
2022/01/13 00:12:27;;;;;;;180.02;58.40;;;;;;;1.87;100.00;104027.81;1024560;28;20700;-75
2022/01/13 00:13:05;;;;;;;154.18;55.15;;;;;;;1.89;100.00;104031.22;1029208;28;20282;-76
2022/01/13 00:14:42;;;;;;;177.55;61.60;;;;;;;1.86;100.00;104029.59;1029311;28;20281;-75
2022/01/13 00:14:42;;;;;;;144.85;49.30;;;;;;;1.95;100.00;104036.16;1021801;29;20271;-77
2022/01/13 00:16:22;;;;;;;146.23;52.83;;;;;;;1.87;100.00;104035.69;1023992;29;20833;-77
2022/01/13 00:17:06;;;;;;;137.02;49.45;;;;;;;1.91;100.00;104031.13;1023874;28;20299;-77
2022/01/13 00:18:40;;;;;;;155.73;53.72;;;;;;;1.83;100.00;104029.75;1019948;29;20282;-77
2022/01/13 00:21:16;;;;;;;153.43;50.03;;;;;;;1.90;100.00;104032.91;1031019;28;20619;-75
2022/01/13 00:21:58;;;;;;;147.20;47.90;;;;;;;1.85;100.00;104032.31;1027920;28;20368;-75
2022/01/13 00:23:55;;;;;;;139.65;49.08;;;;;;;1.85;100.00;104029.69;1032010;28;20273;-75
2022/01/13 00:24:27;;;;;;;148.05;53.47;;;;;;;1.86;100.00;104028.75;1031687;28;20285;-77
2022/01/13 00:25:01;;;;;;;146.02;54.53;;;;;;;1.90;100.00;104030.28;1031917;28;20281;-77
2022/01/13 00:25:34;;;;;;;153.32;55.75;;;;;;;1.88;100.00;104029.50;1025623;28;20278;-77
2022/01/13 00:26:13;;;;;;;162.48;58.40;;;;;;;1.84;100.00;104025.34;1023837;28;20667;-77
2022/01/13 00:26:46;;;;;;;148.13;52.55;;;;;;;1.89;100.00;104023.31;1023709;28;20301;-77
2022/01/13 00:27:18;;;;;;;150.40;55.15;;;;;;;1.90;100.00;104027.66;1021907;29;20284;-77
2022/01/13 00:27:55;;;;;;;162.73;55.15;;;;;;;1.85;100.00;104033.16;1021549;29;20289;-77
2022/01/13 00:28:28;;;;;;;157.10;55.47;;;;;;;1.87;100.00;104027.81;1019897;29;20290;-77
2022/01/13 00:29:02;;;;;;;158.93;55.78;;;;;;;1.88;100.00;104034.78;1018156;29;20292;-77
2022/01/13 00:29:34;;;;;;;161.05;54.78;;;;;;;1.88;100.00;104037.41;1022994;29;20282;-77
2022/01/13 00:30:13;;;;;;;167.88;57.85;;;;;;;1.89;100.00;104041.72;1023553;29;20283;-77
2022/01/13 00:30:49;;;;;;;175.63;56.30;;;;;;;1.83;100.00;104032.38;1025690;28;20286;-77
2022/01/13 00:31:26;;;;;;;161.27;53.78;;;;;;;1.84;100.00;104033.25;1028101;28;20433;-77
2022/01/13 00:31:58;;;;;;;154.27;54.55;;;;;;;1.85;100.00;104034.94;1023640;29;20319;-77
2022/01/13 00:32:32;;;;;;;169.05;54.65;;;;;;;1.83;100.00;104031.53;1023816;29;20285;-77
2022/01/13 00:33:03;;;;;;;154.15;54.58;;;;;;;1.83;100.00;104036.78;1023824;29;20287;-77
2022/01/13 00:33:35;;;;;;;168.48;59.45;;;;;;;1.80;100.00;104040.44;1025020;28;20410;-77
2022/01/13 00:34:07;;;;;;;159.27;57.78;;;;;;;1.90;100.00;104043.41;1023796;29;20361;-77
2022/01/13 00:34:39;;;;;;;172.20;58.88;;;;;;;1.86;100.00;104044.53;1020690;29;20286;-77
2022/01/13 00:35:11;;;;;;;160.82;59.47;;;;;;;1.89;100.00;104040.88;1023684;29;20283;-77
2022/01/13 00:35:42;;;;;;;165.18;58.90;;;;;;;1.84;100.00;104033.25;1020135;29;20292;-77
2022/01/13 00:36:14;;;;;;;168.70;59.15;;;;;;;1.84;100.00;104033.25;1024241;28;20279;-77
2022/01/13 00:36:46;;;;;;;169.85;58.35;;;;;;;1.84;100.00;104033.25;1027008;28;20297;-77
2022/01/13 00:37:17;;;;;;;169.35;59.10;;;;;;;1.86;100.00;104032.22;1026795;28;20335;-77
2022/01/13 00:37:49;;;;;;;180.27;61.40;;;;;;;1.82;100.00;104035.09;1027481;28;20639;-77
2022/01/13 00:38:20;;;;;;;180.23;63.53;;;;;;;1.80;100.00;104035.19;1028178;28;20819;-77
2022/01/13 00:38:52;;;;;;;170.18;61.65;;;;;;;1.82;100.00;104029.84;1027619;28;20288;-77
2022/01/13 00:39:24;;;;;;;175.88;61.00;;;;;;;1.81;100.00;104028.16;1027800;28;20290;-77
2022/01/13 00:39:55;;;;;;;175.35;60.78;;;;;;;1.81;100.00;104038.66;1023517;29;20369;-77
2022/01/13 00:40:27;;;;;;;180.57;64.93;;;;;;;1.82;100.00;104040.34;1024375;28;20290;-77
2022/01/13 00:40:58;;;;;;;224.45;65.68;;;;;;;1.74;100.00;104034.66;1023060;29;20295;-77
2022/01/13 00:41:30;;;;;;;201.77;63.63;;;;;;;1.79;100.00;104035.25;1024290;28;20324;-77
2022/01/13 00:42:02;;;;;;;204.73;64.32;;;;;;;1.76;100.00;104035.44;1023588;28;20283;-77
2022/01/13 00:42:33;;;;;;;186.27;65.50;;;;;;;1.78;100.00;104036.19;1024419;28;20267;-77
2022/01/13 00:43:05;;;;;;;204.15;64.53;;;;;;;1.78;100.00;104038.81;1023705;29;20285;-77
2022/01/13 00:43:39;;;;;;;188.98;66.63;;;;;;;1.80;100.00;104040.44;1020432;29;20318;-77
2022/01/13 00:44:11;;;;;;;189.10;64.10;;;;;;;1.80;100.00;104034.34;1023554;29;20287;-77
2022/01/13 00:44:45;;;;;;;186.88;63.80;;;;;;;1.82;100.00;104037.72;1024746;28;20654;-77
2022/01/13 00:45:16;;;;;;;186.55;66.45;;;;;;;1.82;100.00;104037.72;1027719;28;20284;-77
2022/01/13 00:45:49;;;;;;;201.10;67.38;;;;;;;1.82;100.00;104029.84;1027813;28;20297;-77
2022/01/13 00:46:26;;;;;;;187.07;64.70;;;;;;;1.83;100.00;104032.38;1027752;28;20313;-77
2022/01/13 00:47:00;;;;;;;203.30;67.07;;;;;;;1.82;100.00;104030.69;1027649;28;20282;-77
2022/01/13 00:47:33;;;;;;;199.50;68.60;;;;;;;1.84;100.00;104027.97;1027526;28;20289;-77
2022/01/13 00:48:05;;;;;;;209.35;75.10;;;;;;;1.80;100.00;104029.06;1029376;28;20286;-77
2022/01/13 00:48:36;;;;;;;202.18;76.78;;;;;;;1.83;100.00;104027.13;1030027;28;20284;-77
2022/01/13 00:49:10;;;;;;;213.55;77.80;;;;;;;1.80;100.00;104029.06;1027552;28;20288;-77
2022/01/13 00:49:41;;;;;;;222.55;80.63;;;;;;;1.80;100.00;104031.72;1027562;28;20282;-77
2022/01/13 00:50:13;;;;;;;246.95;79.95;;;;;;;1.80;100.00;104036.97;1026187;28;20804;-77
2022/01/13 00:50:45;;;;;;;202.38;74.85;;;;;;;1.80;100.00;104032.56;1028150;28;20282;-77
2022/01/13 00:51:19;;;;;;;209.32;77.70;;;;;;;1.77;100.00;104031.88;1027828;28;20376;-77
2022/01/13 00:51:50;;;;;;;212.38;73.88;;;;;;;1.80;100.00;104031.72;1027845;28;20410;-77
2022/01/13 00:52:22;;;;;;;193.45;76.40;;;;;;;1.81;100.00;104036.03;1023418;29;20286;-77
2022/01/13 00:52:53;;;;;;;216.20;75.47;;;;;;;1.82;100.00;104035.09;1027795;28;20285;-76
2022/01/13 00:53:25;;;;;;;205.35;78.13;;;;;;;1.80;100.00;104031.72;1028241;28;20286;-77
2022/01/13 00:54:03;;;;;;;201.23;76.22;;;;;;;1.83;100.00;104031.53;1027026;28;20650;-77
2022/01/13 00:54:35;;;;;;;205.43;74.07;;;;;;;1.85;100.00;104030.53;1022366;29;20278;-77
2022/01/13 00:55:09;;;;;;;231.45;76.90;;;;;;;1.79;100.00;104036.13;1019702;29;20279;-77
2022/01/13 00:55:48;;;;;;;234.57;78.43;;;;;;;1.76;100.00;104033.66;1022867;29;20338;-77
2022/01/13 00:56:20;;;;;;;193.73;70.85;;;;;;;1.83;100.00;104029.75;1025457;28;20659;-77
2022/01/13 00:56:52;;;;;;;183.38;72.55;;;;;;;1.84;100.00;104030.59;1027799;28;20344;-77
2022/01/13 00:57:27;;;;;;;205.13;74.95;;;;;;;1.78;100.00;104028.31;1027590;28;20379;-77
2022/01/13 00:57:59;;;;;;;198.10;74.00;;;;;;;1.81;100.00;104030.78;1023586;29;20275;-77
2022/01/13 00:58:32;;;;;;;211.20;72.25;;;;;;;1.84;100.00;104027.97;1026464;28;20502;-75
2022/01/13 00:59:07;;;;;;;202.15;71.72;;;;;;;1.85;100.00;104024.41;1027635;28;20305;-75
2022/01/13 00:59:39;;;;;;;202.30;74.35;;;;;;;1.88;100.00;104029.50;1029456;28;20289;-76
2022/01/13 01:00:11;;;;;;;195.93;75.22;;;;;;;1.89;100.00;104019.84;1031578;28;20351;-75
2022/01/13 01:00:43;;;;;;;203.93;74.82;;;;;;;1.85;100.00;104024.41;1031407;28;20317;-75
2022/01/13 01:01:15;;;;;;;195.50;74.13;;;;;;;1.84;100.00;104023.56;1031165;28;20404;-77
2022/01/13 01:01:50;;;;;;;206.43;74.05;;;;;;;1.89;100.00;104019.84;1027053;28;20374;-77
2022/01/13 01:02:22;;;;;;;199.68;73.63;;;;;;;1.90;100.00;104017.13;1027818;28;20632;-77
2022/01/13 01:02:53;;;;;;;186.98;75.05;;;;;;;1.90;100.00;104011.03;1027413;28;20986;-77
2022/01/13 01:03:26;;;;;;;199.35;73.78;;;;;;;1.86;100.00;104015.59;1028919;28;20274;-77
2022/01/13 01:03:58;;;;;;;208.90;73.43;;;;;;;1.87;100.00;104019.94;1030916;28;20646;-77
2022/01/13 01:04:29;;;;;;;206.82;75.38;;;;;;;1.85;100.00;104017.38;1028116;28;20622;-77
2022/01/13 01:05:01;;;;;;;218.43;70.55;;;;;;;1.84;100.00;104013.06;1027865;28;20652;-77
2022/01/13 01:05:34;;;;;;;210.98;75.35;;;;;;;1.84;100.00;104012.22;1026926;28;20278;-77
2022/01/13 01:06:05;;;;;;;208.75;75.13;;;;;;;1.83;100.00;104021.03;1023851;29;20286;-77
2022/01/13 01:06:38;;;;;;;208.13;75.20;;;;;;;1.82;100.00;104014.06;1024098;29;20278;-77
2022/01/13 01:07:09;;;;;;;217.15;76.90;;;;;;;1.78;100.00;104015.16;1023302;29;20289;-77
2022/01/13 01:07:41;;;;;;;275.58;81.75;;;;;;;1.70;100.00;104014.72;1023633;28;20303;-77
2022/01/13 01:08:12;;;;;;;223.18;78.88;;;;;;;1.74;100.00;104018.91;1023281;29;20279;-77
2022/01/13 01:08:48;;;;;;;234.93;78.30;;;;;;;1.74;100.00;104024.16;1024637;28;20290;-77
2022/01/13 01:09:38;;;;;;;247.70;76.72;;;;;;;1.72;100.00;104020.75;1023455;29;20282;-76
2022/01/13 01:10:09;;;;;;;223.45;74.35;;;;;;;1.78;100.00;104012.53;1019719;29;20287;-77
2022/01/13 01:10:42;;;;;;;210.93;77.78;;;;;;;1.76;100.00;104019.66;1019545;29;20295;-77
2022/01/13 01:11:14;;;;;;;206.48;75.15;;;;;;;1.79;100.00;104008.97;1018758;29;20363;-77
2022/01/13 01:11:47;;;;;;;226.80;77.82;;;;;;;1.82;100.00;104014.91;1020274;29;20322;-77
2022/01/13 01:12:19;;;;;;;224.57;75.93;;;;;;;1.81;100.00;104009.75;1023657;28;20646;-77
2022/01/13 01:12:51;;;;;;;216.63;77.20;;;;;;;1.78;100.00;104020.44;1024414;28;20286;-77
2022/01/13 01:13:27;;;;;;;207.18;76.40;;;;;;;1.81;100.00;104013.22;1027573;28;20292;-77
2022/01/13 01:14:00;;;;;;;223.90;77.53;;;;;;;1.83;100.00;104013.16;1023605;29;20628;-77
2022/01/13 01:14:35;;;;;;;223.70;73.72;;;;;;;1.80;100.00;104016.78;1023594;29;20293;-77
2022/01/13 01:15:07;;;;;;;197.57;76.60;;;;;;;1.84;100.00;104022.72;1023599;29;20308;-77
2022/01/13 01:15:43;;;;;;;208.00;75.63;;;;;;;1.80;100.00;104016.78;1024635;28;20283;-77
2022/01/13 01:16:14;;;;;;;207.85;76.90;;;;;;;1.80;100.00;104015.94;1027839;28;20282;-77
2022/01/13 01:16:46;;;;;;;212.15;74.85;;;;;;;1.83;100.00;104021.03;1028054;28;20293;-75
2022/01/13 01:17:18;;;;;;;235.30;80.00;;;;;;;1.81;100.00;104017.63;1027291;28;20359;-75
2022/01/13 01:17:56;;;;;;;212.40;77.80;;;;;;;1.80;100.00;104024.66;1027539;28;20386;-75
2022/01/13 01:18:40;;;;;;;203.07;72.93;;;;;;;1.81;100.00;104017.63;1027829;28;20278;-75
2022/01/13 01:19:13;;;;;;;203.23;70.30;;;;;;;1.81;100.00;104020.25;1030614;28;20292;-77
2022/01/13 01:19:48;;;;;;;228.88;76.40;;;;;;;1.76;100.00;104017.88;1027618;28;20474;-77
2022/01/13 01:20:20;;;;;;;252.27;77.43;;;;;;;1.76;100.00;104019.66;1027500;28;20357;-77
2022/01/13 01:23:25;;;;;;;219.13;77.43;;;;;;;1.82;100.00;104024.59;1023645;29;20282;-77
2022/01/13 01:24:56;;;;;;;211.88;77.57;;;;;;;1.78;100.00;104025.69;1022979;29;20289;-77
2022/01/13 01:26:49;;;;;;;352.90;81.78;;;;;;;1.72;100.00;104023.38;1027294;28;20286;-77
2022/01/13 01:26:58;;;;;;;194.77;67.28;;;;;;;1.76;100.00;104019.66;1017160;28;20302;-77
2022/01/13 01:28:09;;;;;;;205.02;70.18;;;;;;;1.77;100.00;104016.94;1027531;28;20309;-77
2022/01/13 01:28:38;;;;;;;229.93;65.38;;;;;;;1.70;100.00;104025.25;1024007;28;20410;-77
2022/01/13 01:29:30;;;;;;;188.95;62.45;;;;;;;1.76;100.00;104027.53;1023543;29;20282;-77
2022/01/13 01:30:09;;;;;;;181.55;61.65;;;;;;;1.75;100.00;104028.47;1025228;28;20367;-77
2022/01/13 01:30:43;;;;;;;200.32;63.67;;;;;;;1.76;100.00;104025.75;1023800;28;20291;-77
2022/01/13 01:31:17;;;;;;;194.52;62.28;;;;;;;1.76;100.00;104023.13;1023477;29;20283;-77
2022/01/13 01:31:53;;;;;;;178.40;59.40;;;;;;;1.82;100.00;104021.97;1023677;29;20670;-77
2022/01/13 01:32:25;;;;;;;187.68;62.45;;;;;;;1.81;100.00;104022.88;1026078;28;20285;-77
2022/01/13 01:32:57;;;;;;;178.32;60.00;;;;;;;1.80;100.00;104021.19;1027727;28;20309;-77
2022/01/13 01:33:28;;;;;;;186.63;62.30;;;;;;;1.76;100.00;104024.91;1027929;28;20650;-77
2022/01/13 01:35:14;;;;;;;228.77;63.05;;;;;;;1.77;100.00;104019.56;1023365;29;20430;-76
2022/01/13 01:35:46;;;;;;;201.55;60.00;;;;;;;1.70;100.00;104020.00;1019667;29;20284;-77
2022/01/13 01:36:18;;;;;;;178.95;56.78;;;;;;;1.71;100.00;104026.94;1021393;29;20282;-77
2022/01/13 01:36:51;;;;;;;163.23;58.92;;;;;;;1.73;100.00;104030.34;1020811;29;20310;-77
2022/01/13 01:37:26;;;;;;;172.25;59.28;;;;;;;1.75;100.00;104023.22;1020974;29;20291;-77
2022/01/13 01:37:58;;;;;;;179.23;56.13;;;;;;;1.75;100.00;104017.97;1022981;29;20715;-77
2022/01/13 01:38:30;;;;;;;193.43;61.47;;;;;;;1.69;100.00;104028.81;1024678;28;20715;-77
2022/01/13 01:39:02;;;;;;;186.55;59.35;;;;;;;1.72;100.00;104020.75;1024775;28;20292;-77
2022/01/13 01:39:34;;;;;;;191.35;59.10;;;;;;;1.72;100.00;104028.63;1027527;28;20308;-77
2022/01/13 01:40:07;;;;;;;202.07;61.03;;;;;;;1.73;100.00;104027.72;1027555;28;20282;-77
2022/01/13 01:40:39;;;;;;;194.77;60.70;;;;;;;1.71;100.00;104025.16;1024472;28;20282;-77
2022/01/13 01:41:11;;;;;;;196.02;64.20;;;;;;;1.75;100.00;104023.22;1027709;28;20281;-77
2022/01/13 01:41:47;;;;;;;200.75;62.72;;;;;;;1.70;100.00;104020.00;1027406;28;20631;-77
2022/01/13 01:42:20;;;;;;;179.93;60.55;;;;;;;1.72;100.00;104023.38;1024864;28;20647;-77
2022/01/13 01:42:52;;;;;;;177.05;60.53;;;;;;;1.75;100.00;104017.97;1023258;29;20785;-77
2022/01/13 01:43:25;;;;;;;195.02;62.88;;;;;;;1.73;100.00;104019.81;1023650;29;20291;-77
2022/01/13 01:44:01;;;;;;;216.82;62.67;;;;;;;1.72;100.00;104018.13;1020363;29;20305;-76
2022/01/13 01:44:37;;;;;;;219.73;61.20;;;;;;;1.69;100.00;104021.78;1023483;29;20371;-77
2022/01/13 01:45:10;;;;;;;185.07;60.38;;;;;;;1.70;100.00;104012.09;1019523;29;20286;-77
2022/01/13 01:45:47;;;;;;;199.27;62.38;;;;;;;1.71;100.00;104014.66;1021583;29;20292;-77
2022/01/13 01:46:18;;;;;;;212.30;62.58;;;;;;;1.69;100.00;104013.03;1019412;29;20411;-77
2022/01/13 01:46:50;;;;;;;194.25;60.95;;;;;;;1.71;100.00;104017.28;1021151;29;20279;-77
2022/01/13 01:47:25;;;;;;;190.10;61.35;;;;;;;1.74;100.00;104013.63;1023221;29;20805;-77
2022/01/13 01:47:57;;;;;;;192.98;64.03;;;;;;;1.72;100.00;104018.13;1027480;28;20290;-77
2022/01/13 01:48:30;;;;;;;207.57;63.05;;;;;;;1.71;100.00;104013.81;1027163;28;20286;-77
2022/01/13 01:49:08;;;;;;;182.63;61.00;;;;;;;1.69;100.00;104020.91;1027159;28;20282;-77
2022/01/13 01:49:42;;;;;;;245.88;63.28;;;;;;;1.70;100.00;104014.72;1027278;28;20278;-77
2022/01/13 01:50:21;;;;;;;203.75;64.00;;;;;;;1.64;100.00;104015.03;1027533;28;20817;-77
2022/01/13 01:50:58;;;;;;;187.07;60.78;;;;;;;1.67;100.00;104009.63;1026171;28;20281;-77
2022/01/13 01:51:29;;;;;;;198.52;61.28;;;;;;;1.65;100.00;104011.50;1027634;28;20286;-77
2022/01/13 01:52:01;;;;;;;196.85;59.83;;;;;;;1.67;100.00;104009.63;1031655;28;20304;-77
2022/01/13 01:52:33;;;;;;;183.18;60.13;;;;;;;1.69;100.00;104013.03;1027438;28;20286;-77
2022/01/13 01:53:05;;;;;;;191.57;61.35;;;;;;;1.67;100.00;104014.91;1027590;28;20650;-75
2022/01/13 01:53:37;;;;;;;206.40;62.30;;;;;;;1.65;100.00;104008.88;1027430;28;20298;-76
2022/01/13 01:54:08;;;;;;;196.80;65.22;;;;;;;1.69;100.00;104007.78;1027564;28;20798;-75
2022/01/13 01:54:40;;;;;;;198.18;64.60;;;;;;;1.67;100.00;104007.00;1027750;28;20304;-75
2022/01/13 01:55:12;;;;;;;184.68;63.25;;;;;;;1.68;100.00;104014.81;1027540;28;20285;-75
2022/01/13 01:55:44;;;;;;;231.80;67.07;;;;;;;1.65;100.00;104007.09;1027696;28;20650;-76
2022/01/13 01:56:15;;;;;;;236.25;73.90;;;;;;;1.66;100.00;104007.94;1027412;28;20292;-76
2022/01/13 01:56:47;;;;;;;218.55;71.40;;;;;;;1.71;100.00;104005.91;1028083;28;20289;-75
2022/01/13 01:57:20;;;;;;;220.15;75.50;;;;;;;1.72;100.00;104011.09;1031019;28;20281;-75
2022/01/13 01:57:52;;;;;;;211.43;78.00;;;;;;;1.71;100.00;104013.81;1027321;28;20648;-75
2022/01/13 01:58:26;;;;;;;206.82;75.22;;;;;;;1.68;100.00;104006.09;1026966;28;20286;-76
2022/01/13 01:59:02;;;;;;;211.27;74.88;;;;;;;1.67;100.00;104009.63;1023002;29;20299;-77
2022/01/13 01:59:37;;;;;;;201.80;71.07;;;;;;;1.67;100.00;104009.63;1023361;29;20279;-77
2022/01/13 02:00:12;;;;;;;187.65;72.55;;;;;;;1.71;100.00;104005.91;1023612;29;20697;-77
2022/01/13 02:00:43;;;;;;;191.88;74.22;;;;;;;1.70;100.00;104010.31;1023365;29;20302;-77
2022/01/13 02:01:15;;;;;;;198.52;76.22;;;;;;;1.69;100.00;104018.28;1023554;29;20275;-77
2022/01/13 02:01:49;;;;;;;222.38;75.00;;;;;;;1.61;100.00;104016.03;1020908;29;20301;-77
2022/01/13 02:02:22;;;;;;;206.13;73.68;;;;;;;1.67;100.00;104012.28;1027098;28;20281;-77
2022/01/13 02:02:55;;;;;;;215.55;73.72;;;;;;;1.69;100.00;104011.25;1023454;29;20283;-77
2022/01/13 02:03:28;;;;;;;232.40;74.82;;;;;;;1.64;100.00;104009.78;1024648;28;20763;-77
2022/01/13 02:03:59;;;;;;;184.32;73.30;;;;;;;1.71;100.00;104017.28;1027361;28;20349;-77
2022/01/13 02:04:31;;;;;;;203.57;72.70;;;;;;;1.67;100.00;104009.63;1027660;28;20644;-77
2022/01/13 02:05:03;;;;;;;192.60;73.10;;;;;;;1.69;100.00;104013.03;1027478;28;20274;-77
2022/01/13 02:05:34;;;;;;;209.75;75.28;;;;;;;1.66;100.00;104003.53;1027430;28;20274;-77
2022/01/13 02:06:07;;;;;;;224.82;74.07;;;;;;;1.63;100.00;104013.34;1027213;28;20278;-77
2022/01/13 02:06:40;;;;;;;200.02;73.85;;;;;;;1.66;100.00;104008.78;1027539;28;20288;-77
2022/01/13 02:07:13;;;;;;;209.15;72.85;;;;;;;1.64;100.00;104009.78;1028089;28;20304;-77
2022/01/13 02:07:44;;;;;;;212.95;76.18;;;;;;;1.68;100.00;104011.34;1026459;28;20339;-77
2022/01/13 02:08:16;;;;;;;232.48;75.35;;;;;;;1.65;100.00;104009.72;1018540;29;20296;-77
2022/01/13 02:08:47;;;;;;;200.77;76.28;;;;;;;1.63;100.00;104018.59;1023463;29;20282;-77
2022/01/13 02:09:20;;;;;;;203.75;76.05;;;;;;;1.64;100.00;104007.16;1024120;28;20282;-77
2022/01/13 02:09:53;;;;;;;237.90;77.40;;;;;;;1.62;100.00;104016.88;1020101;29;20425;-77
2022/01/13 02:10:24;;;;;;;250.88;79.43;;;;;;;1.66;100.00;104002.69;1019606;29;20752;-77
2022/01/13 02:10:56;;;;;;;194.43;72.72;;;;;;;1.69;100.00;104013.03;1019261;29;20283;-77
2022/01/13 02:11:28;;;;;;;229.07;77.03;;;;;;;1.65;100.00;104009.72;1021166;28;20287;-77
2022/01/13 02:12:05;;;;;;;209.23;77.07;;;;;;;1.64;100.00;104009.78;1024108;28;20283;-77
2022/01/13 02:12:42;;;;;;;194.38;74.38;;;;;;;1.63;100.00;104013.34;1027454;28;20282;-77
2022/01/13 02:13:19;;;;;;;216.05;75.60;;;;;;;1.65;100.00;104014.13;1025294;28;20299;-77
2022/01/13 02:13:54;;;;;;;201.43;75.18;;;;;;;1.66;100.00;104014.03;1029978;28;20290;-77
2022/01/13 02:15:28;;;;;;;191.93;72.82;;;;;;;1.70;100.00;104015.59;1029637;28;20286;-77
2022/01/13 02:16:06;;;;;;;186.52;64.13;;;;;;;1.68;100.00;104021.84;1027372;28;20281;-77
2022/01/13 02:16:44;;;;;;;218.85;72.15;;;;;;;1.57;100.00;104021.53;1027490;28;20270;-75
2022/01/13 02:17:24;;;;;;;206.02;71.85;;;;;;;1.63;100.00;104022.06;1023052;29;20279;-75
2022/01/13 02:17:56;;;;;;;187.98;72.20;;;;;;;1.68;100.00;104024.47;1023312;29;20274;-75
2022/01/13 02:18:30;;;;;;;220.38;72.63;;;;;;;1.62;100.00;104023.00;1026657;28;20290;-75
2022/01/13 02:19:01;;;;;;;246.27;83.40;;;;;;;1.60;100.00;104021.38;1023444;29;20666;-75
2022/01/13 02:19:36;;;;;;;187.45;73.65;;;;;;;1.65;100.00;104017.59;1023160;29;20650;-76
2022/01/13 02:20:10;;;;;;;246.93;77.53;;;;;;;1.58;100.00;104017.97;1019489;29;20279;-75
2022/01/13 02:20:47;;;;;;;230.18;80.32;;;;;;;1.60;100.00;104024.84;1019424;29;20287;-75
2022/01/13 02:21:19;;;;;;;224.38;78.00;;;;;;;1.60;100.00;104031.88;1019524;29;20283;-75
2022/01/13 02:21:52;;;;;;;232.45;79.60;;;;;;;1.62;100.00;104024.78;1017236;29;20656;-75
2022/01/13 02:22:24;;;;;;;281.92;82.82;;;;;;;1.60;100.00;104029.25;1019655;29;20620;-75
2022/01/13 02:22:55;;;;;;;257.00;80.45;;;;;;;1.68;100.00;104027.94;1018852;29;20298;-75
2022/01/13 02:23:35;;;;;;;217.18;77.47;;;;;;;1.65;100.00;104028.13;1020292;29;20293;-75
2022/01/13 02:24:06;;;;;;;211.75;77.53;;;;;;;1.61;100.00;104025.69;1024998;28;20279;-75
2022/01/13 02:24:38;;;;;;;222.73;76.68;;;;;;;1.63;100.00;104021.22;1027518;28;20665;-76
2022/01/13 02:25:13;;;;;;;236.50;78.75;;;;;;;1.60;100.00;104030.09;1027530;28;20278;-76
2022/01/13 02:25:44;;;;;;;224.68;78.00;;;;;;;1.66;100.00;104023.72;1026634;28;20282;-75
2022/01/13 02:26:16;;;;;;;229.55;78.63;;;;;;;1.66;100.00;104034.22;1023681;29;20282;-75
2022/01/13 02:26:47;;;;;;;235.68;78.35;;;;;;;1.60;100.00;104029.25;1023560;29;20302;-75
2022/01/13 02:27:19;;;;;;;260.80;79.82;;;;;;;1.57;100.00;104035.53;1023472;29;20358;-75
2022/01/13 02:27:50;;;;;;;227.05;75.18;;;;;;;1.62;100.00;104032.66;1023283;29;20314;-75
2022/01/13 02:28:22;;;;;;;228.88;78.90;;;;;;;1.65;100.00;104032.53;1026161;28;20645;-76
2022/01/13 02:28:55;;;;;;;226.50;77.47;;;;;;;1.64;100.00;104025.53;1027846;28;20282;-75
2022/01/13 02:29:27;;;;;;;213.15;76.65;;;;;;;1.65;100.00;104037.78;1027546;28;20286;-75
2022/01/13 02:29:58;;;;;;;242.73;76.63;;;;;;;1.65;100.00;104027.25;1027680;28;20273;-75
2022/01/13 02:30:30;;;;;;;232.43;77.20;;;;;;;1.63;100.00;104034.34;1027692;28;20385;-75
2022/01/13 02:31:02;;;;;;;219.00;76.72;;;;;;;1.64;100.00;104029.00;1027610;28;20340;-76
2022/01/13 02:31:34;;;;;;;233.15;76.43;;;;;;;1.58;100.00;104028.50;1027419;28;20313;-76
2022/01/13 02:32:07;;;;;;;240.70;77.10;;;;;;;1.57;100.00;104039.94;1027596;28;20320;-75
2022/01/13 02:32:38;;;;;;;202.88;72.15;;;;;;;1.61;100.00;104025.69;1027409;28;20282;-77
2022/01/13 02:33:10;;;;;;;212.02;77.75;;;;;;;1.61;100.00;104021.28;1027715;28;20278;-75
2022/01/13 02:33:41;;;;;;;193.93;77.65;;;;;;;1.65;100.00;104032.53;1027252;28;20297;-76
2022/01/13 02:34:13;;;;;;;209.25;75.35;;;;;;;1.60;100.00;104029.25;1027431;28;20278;-75
2022/01/13 02:34:45;;;;;;;208.77;77.68;;;;;;;1.63;100.00;104023.84;1027909;28;20650;-75
2022/01/13 02:35:16;;;;;;;207.02;74.90;;;;;;;1.61;100.00;104025.69;1031546;28;20280;-75
2022/01/13 02:35:48;;;;;;;213.05;78.40;;;;;;;1.62;100.00;104027.41;1027351;28;20359;-75
2022/01/13 02:36:25;;;;;;;220.65;78.00;;;;;;;1.64;100.00;104025.53;1026779;28;20642;-75
2022/01/13 02:36:59;;;;;;;256.77;77.10;;;;;;;1.74;100.00;104024.16;1019361;29;20298;-75
2022/01/13 02:37:30;;;;;;;220.45;74.97;;;;;;;1.65;100.00;104028.13;1021144;29;20314;-77
2022/01/13 02:38:08;;;;;;;240.02;79.47;;;;;;;1.64;100.00;104031.63;1024467;28;20287;-77
2022/01/13 02:38:39;;;;;;;205.00;70.43;;;;;;;1.68;100.00;104027.94;1025189;28;20271;-77
2022/01/13 02:39:11;;;;;;;183.73;74.43;;;;;;;1.68;100.00;104027.94;1027139;28;20328;-77
2022/01/13 02:39:43;;;;;;;216.57;78.18;;;;;;;1.67;100.00;104025.41;1027360;28;20281;-77
2022/01/13 02:40:15;;;;;;;222.77;77.18;;;;;;;1.65;100.00;104016.75;1027700;28;20958;-77
2022/01/13 02:40:55;;;;;;;218.82;75.72;;;;;;;1.65;100.00;104027.25;1027411;28;20301;-77
2022/01/13 02:41:27;;;;;;;251.27;75.28;;;;;;;1.67;100.00;104026.25;1027261;28;20286;-77
2022/01/13 02:42:00;;;;;;;218.15;74.30;;;;;;;1.63;100.00;104024.69;1027462;28;20300;-77
2022/01/13 02:42:33;;;;;;;252.43;77.50;;;;;;;1.59;100.00;104014.41;1029098;28;20282;-77